Terminal Aerodrome Forecast
Issued by NWS Austin/San Antonio, TX

Home | Current Version | Previous Version | Text Only | Print | Product List | Glossary On
Versions: 1 2 3 4 5 6 7 8 9 10 11 12 13
000
FTUS44 KEWX 280500
TAFSAT
TAF
KSAT 280535Z 2806/2912 11005KT P6SM SKC
      TEMPO 2809/2813 P6SM FEW015
     FM281500 11009KT P6SM SCT050
     FM290300 15005KT P6SM FEW070=

USA.gov is the U.S. government's official web portal to all federal, state and local government web resources and services.